createdAt,value
2017-07-06T06:21:34.521Z,72.5
2017-07-06T06:22:35.213Z,72.9
2017-07-06T06:23:35.905Z,72.7
2017-07-06T06:24:36.600Z,71.8
2017-07-06T06:25:37.281Z,73.2
2017-07-06T06:26:38.183Z,73.1
2017-07-06T06:27:38.873Z,71.6
2017-07-06T06:28:39.583Z,71.8
2017-07-06T06:29:40.277Z,72.7
2017-07-06T06:30:40.977Z,73.1
2017-07-06T06:31:41.672Z,72.0
2017-07-06T06:32:42.342Z,72.1
2017-07-06T06:33:43.045Z,72.0
2017-07-06T06:34:43.767Z,70.9
2017-07-06T06:35:44.696Z,71.0
2017-07-06T06:36:45.631Z,71.4
2017-07-06T06:37:46.327Z,71.0
2017-07-06T06:38:47.265Z,71.9
2017-07-06T06:39:47.962Z,71.6
2017-07-06T06:40:48.664Z,70.8
2017-07-06T06:41:49.327Z,70.5
2017-07-06T06:42:50.059Z,69.6
2017-07-06T06:43:50.756Z,69.7
2017-07-06T06:44:51.454Z,69.7
2017-07-06T06:45:52.152Z,69.0
2017-07-06T06:46:52.821Z,69.0
2017-07-06T06:47:53.486Z,69.1
2017-07-06T06:48:54.184Z,69.4
2017-07-06T06:49:54.882Z,69.7
2017-07-06T06:50:55.582Z,69.6
2017-07-06T06:51:56.282Z,69.6
2017-07-06T06:52:56.982Z,68.7
2017-07-06T06:53:57.688Z,69.3
2017-07-06T06:54:58.383Z,70.2
2017-07-06T06:55:59.101Z,69.7
2017-07-06T06:56:59.790Z,68.6
2017-07-06T06:58:00.471Z,67.7
2017-07-06T06:59:01.186Z,67.1
2017-07-06T07:00:01.888Z,67.6
2017-07-06T07:01:02.587Z,66.8
2017-07-06T07:02:03.291Z,66.8
2017-07-06T07:03:03.985Z,67.1
2017-07-06T07:04:04.695Z,67.1
2017-07-06T07:05:05.397Z,66.5
2017-07-06T07:06:06.098Z,66.8
2017-07-06T07:07:06.802Z,66.5
2017-07-06T07:08:07.500Z,66.4
2017-07-06T07:09:08.434Z,66.0
2017-07-06T07:10:09.105Z,65.0
2017-07-06T07:11:09.806Z,65.5
2017-07-06T07:12:10.506Z,64.2
2017-07-06T07:13:11.208Z,63.5
2017-07-06T07:14:12.114Z,62.9
2017-07-06T07:15:12.816Z,63.5
2017-07-06T07:16:13.520Z,64.1
2017-07-06T07:17:14.224Z,64.2
2017-07-06T07:18:14.925Z,64.2
2017-07-06T07:19:15.627Z,63.9
2017-07-06T07:20:16.330Z,63.0
2017-07-06T07:21:17.032Z,62.6
2017-07-06T07:22:17.705Z,62.1
2017-07-06T07:23:18.409Z,61.2
2017-07-06T07:24:19.084Z,62.1
2017-07-06T07:25:19.794Z,62.2
2017-07-06T07:26:20.501Z,61.1
2017-07-06T07:27:21.209Z,61.9
2017-07-06T07:28:21.890Z,60.6
2017-07-06T07:29:22.565Z,59.9
2017-07-06T07:30:23.275Z,60.2
2017-07-06T07:31:23.954Z,58.7
2017-07-06T07:32:24.664Z,58.0
2017-07-06T07:33:25.341Z,57.7
2017-07-06T07:34:26.019Z,57.4
2017-07-06T07:35:26.727Z,56.4
2017-07-06T07:36:27.409Z,57.7
2017-07-06T07:37:28.088Z,56.1
2017-07-06T07:38:28.803Z,57.8
2017-07-06T07:39:29.484Z,56.6
2017-07-06T07:40:30.192Z,55.8
2017-07-06T07:41:30.877Z,55.2
2017-07-06T07:42:31.555Z,53.2
2017-07-06T07:43:32.269Z,53.6
2017-07-06T07:44:33.225Z,53.6
2017-07-06T07:45:33.924Z,53.9
2017-07-06T07:46:34.648Z,55.0
2017-07-06T07:47:35.334Z,53.7
2017-07-06T07:48:36.055Z,53.2
2017-07-06T07:49:36.767Z,52.7
2017-07-06T07:50:37.449Z,51.9
2017-07-06T07:51:38.167Z,52.5
2017-07-06T07:52:38.889Z,52.7
2017-07-06T07:53:39.612Z,51.4
2017-07-06T07:54:40.329Z,50.6
2017-07-06T07:55:41.016Z,50.5
2017-07-06T07:56:41.737Z,50.1
2017-07-06T07:57:42.418Z,48.9
2017-07-06T07:58:43.105Z,49.0
2017-07-06T07:59:43.820Z,48.7
2017-07-06T08:00:44.541Z,48.5
2017-07-06T08:01:45.259Z,48.6
2017-07-06T08:02:45.976Z,48.2
2017-07-06T08:03:46.691Z,48.0
2017-07-06T08:04:47.409Z,47.9
2017-07-06T08:05:48.128Z,46.8
2017-07-06T08:06:48.815Z,45.4
2017-07-06T08:07:49.505Z,45.6
2017-07-06T08:08:50.222Z,47.7
2017-07-06T08:09:50.913Z,49.5
2017-07-06T08:10:51.603Z,49.0
2017-07-06T08:11:52.322Z,49.0
2017-07-06T08:12:53.052Z,48.9
2017-07-06T08:13:53.766Z,47.0
2017-07-06T08:14:54.453Z,48.3
2017-07-06T08:15:55.145Z,48.6
2017-07-06T08:16:55.866Z,47.3
2017-07-06T08:17:56.589Z,46.9
2017-07-06T08:18:57.315Z,46.6
2017-07-06T08:19:58.036Z,45.9
2017-07-06T08:20:58.758Z,44.4
2017-07-06T08:21:59.444Z,44.2
2017-07-06T08:23:00.162Z,44.8
2017-07-06T08:24:00.890Z,45.5
2017-07-06T08:25:01.573Z,43.8
2017-07-06T08:26:02.296Z,43.6
2017-07-06T08:27:03.018Z,42.8
2017-07-06T08:28:03.739Z,42.7
2017-07-06T08:29:04.429Z,42.7
2017-07-06T08:30:05.197Z,42.3
2017-07-06T08:31:05.872Z,42.1
2017-07-06T08:32:06.562Z,42.4
2017-07-06T08:33:07.284Z,41.5
2017-07-06T08:34:07.979Z,40.7
2017-07-06T08:35:08.668Z,41.5
2017-07-06T08:36:09.390Z,40.8
2017-07-06T08:37:10.112Z,40.6
2017-07-06T08:38:10.830Z,40.9
2017-07-06T08:39:11.523Z,41.3
2017-07-06T08:40:12.212Z,40.9
2017-07-06T08:41:12.930Z,41.7
2017-07-06T08:42:13.657Z,40.9
2017-07-06T08:43:14.479Z,40.9
2017-07-06T08:44:15.208Z,40.6
2017-07-06T08:45:15.944Z,41.7
2017-07-06T08:46:16.585Z,41.6
2017-07-06T08:47:17.314Z,41.5
2017-07-06T08:48:18.042Z,40.6
2017-07-06T08:49:18.764Z,40.0
2017-07-06T08:50:19.491Z,39.8
2017-07-06T08:51:20.183Z,39.2
2017-07-06T08:52:20.913Z,39.4
2017-07-06T08:53:21.601Z,39.9
2017-07-06T08:54:22.293Z,41.9
2017-07-06T08:55:23.016Z,41.4
2017-07-06T08:56:23.744Z,39.5
2017-07-06T08:57:24.470Z,40.3
2017-07-06T08:58:25.165Z,39.0
2017-07-06T08:59:25.859Z,38.3
2017-07-06T09:00:26.550Z,38.0
2017-07-06T09:01:27.270Z,38.5
2017-07-06T09:02:27.969Z,38.5
2017-07-06T09:03:28.697Z,39.0
2017-07-06T09:04:29.425Z,38.6
2017-07-06T09:05:30.115Z,38.8
2017-07-06T09:06:30.846Z,39.0
2017-07-06T09:07:31.570Z,37.9
2017-07-06T09:08:32.295Z,36.8
2017-07-06T09:09:33.020Z,36.2
2017-07-06T09:10:33.711Z,35.7
2017-07-06T09:11:34.408Z,37.0
2017-07-06T09:12:35.128Z,35.9
2017-07-06T09:13:35.825Z,35.1
2017-07-06T09:14:36.522Z,36.3
2017-07-06T09:15:37.213Z,34.7
2017-07-06T09:16:37.907Z,34.2
2017-07-06T09:17:38.629Z,34.9
2017-07-06T09:18:39.327Z,34.3
2017-07-06T09:19:40.050Z,34.5
2017-07-06T09:20:40.747Z,33.7
2017-07-06T09:22:42.168Z,31.5
2017-07-06T09:23:42.895Z,31.9
2017-07-06T09:24:43.622Z,30.7
2017-07-06T09:25:44.347Z,32.0
2017-07-06T09:26:45.038Z,32.8
2017-07-06T09:27:45.764Z,33.9
2017-07-06T09:28:46.492Z,31.8
2017-07-06T09:29:47.216Z,34.0
2017-07-06T09:30:47.942Z,33.2
2017-07-06T09:31:48.664Z,34.5
2017-07-06T09:32:49.359Z,34.8
2017-07-06T09:33:50.050Z,35.1
2017-07-06T09:34:50.777Z,33.8
2017-07-06T09:35:51.509Z,32.6
2017-07-06T09:36:52.204Z,31.9
2017-07-06T09:37:52.933Z,30.0
2017-07-06T09:38:53.657Z,30.0
2017-07-06T09:39:54.379Z,29.3
2017-07-06T09:40:55.074Z,29.9
2017-07-06T09:41:55.768Z,30.3
2017-07-06T09:42:56.490Z,31.2
2017-07-06T09:43:57.224Z,30.5
2017-07-06T09:44:57.950Z,31.6
2017-07-06T09:45:58.670Z,30.4
2017-07-06T09:46:59.397Z,30.5
2017-07-06T09:48:00.125Z,32.1
2017-07-06T09:49:00.851Z,29.9
2017-07-06T09:50:01.543Z,32.2
2017-07-06T09:51:02.240Z,32.6
2017-07-06T09:52:02.960Z,30.8
2017-07-06T09:53:03.683Z,31.9
2017-07-06T09:54:04.381Z,31.4
2017-07-06T09:55:05.110Z,31.1
2017-07-06T09:56:05.837Z,31.8
2017-07-06T09:57:06.567Z,31.7
2017-07-06T09:58:07.286Z,30.9
2017-07-06T09:59:07.986Z,29.0
2017-07-06T10:00:08.716Z,27.8
2017-07-06T10:01:09.440Z,28.9
2017-07-06T10:02:10.163Z,26.4
2017-07-06T10:03:10.887Z,23.9
2017-07-06T10:04:11.580Z,23.4
2017-07-06T10:05:12.307Z,24.5
2017-07-06T10:06:13.025Z,24.5
2017-07-06T10:07:13.753Z,24.2
2017-07-06T10:08:14.440Z,25.6
2017-07-06T10:09:15.164Z,25.7
2017-07-06T10:10:15.892Z,26.7
2017-07-06T10:11:16.616Z,26.8
2017-07-06T10:12:17.339Z,25.5
2017-07-06T10:13:18.064Z,27.3
2017-07-06T10:14:18.789Z,27.5
2017-07-06T10:15:19.508Z,27.2
2017-07-06T10:16:20.228Z,26.7
2017-07-06T10:17:20.926Z,27.4
2017-07-06T10:18:21.610Z,26.8
2017-07-06T10:19:22.306Z,26.0
2017-07-06T10:20:23.027Z,27.3
2017-07-06T10:21:23.740Z,26.7
2017-07-06T10:22:24.430Z,26.1
2017-07-06T10:23:25.118Z,26.1
2017-07-06T10:24:25.843Z,26.6
2017-07-06T10:25:26.560Z,26.6
2017-07-06T10:26:27.282Z,26.4
2017-07-06T10:27:28.206Z,27.8
2017-07-06T10:28:28.927Z,28.4
2017-07-06T10:29:29.643Z,31.5
2017-07-06T10:30:30.329Z,30.2
2017-07-06T10:31:31.078Z,28.4
2017-07-06T10:32:31.770Z,29.3
2017-07-06T10:33:32.495Z,26.9
2017-07-06T10:34:33.202Z,25.6
2017-07-06T10:35:33.921Z,27.3
2017-07-06T10:36:34.634Z,26.0
2017-07-06T10:37:35.321Z,24.8
2017-07-06T10:38:36.013Z,25.8
2017-07-06T10:39:36.701Z,25.0
2017-07-06T10:40:37.387Z,24.2
2017-07-06T10:41:38.105Z,24.1
2017-07-06T10:42:38.824Z,24.2
2017-07-06T10:43:39.548Z,24.4
2017-07-06T10:44:40.268Z,25.5
2017-07-06T10:45:40.982Z,24.9
2017-07-06T10:46:41.704Z,24.2
2017-07-06T10:47:42.394Z,22.9
2017-07-06T10:48:43.116Z,23.4
2017-07-06T10:49:43.806Z,21.6
2017-07-06T10:50:44.524Z,22.8
2017-07-06T10:51:45.214Z,23.8
2017-07-06T10:52:45.900Z,23.1
2017-07-06T10:53:46.623Z,23.2
2017-07-06T10:54:47.316Z,24.0
2017-07-06T10:55:48.001Z,23.1
2017-07-06T10:56:48.726Z,24.0
2017-07-06T10:57:49.450Z,26.5
2017-07-06T10:58:50.170Z,22.6
2017-07-06T10:59:50.892Z,21.4
2017-07-06T11:00:51.581Z,21.4
2017-07-06T11:01:52.270Z,22.7
2017-07-06T11:02:52.959Z,25.3
2017-07-06T11:03:53.679Z,24.3
2017-07-06T11:04:54.400Z,24.4
2017-07-06T11:05:55.121Z,23.1
2017-07-06T11:06:55.849Z,22.3
2017-07-06T11:07:56.544Z,22.7
2017-07-06T11:08:57.262Z,23.7
2017-07-06T11:09:57.983Z,23.2
2017-07-06T11:10:58.675Z,21.5
2017-07-06T11:11:59.365Z,21.0
2017-07-06T11:13:00.085Z,20.4
2017-07-06T11:14:00.804Z,18.3
2017-07-06T11:15:01.531Z,20.1
2017-07-06T11:16:02.220Z,19.4
2017-07-06T11:17:02.939Z,19.5
2017-07-06T11:18:03.667Z,18.3
2017-07-06T11:19:04.388Z,15.6
2017-07-06T11:20:05.110Z,16.5
2017-07-06T11:21:05.843Z,19.5
2017-07-06T11:22:06.530Z,19.0
2017-07-06T11:23:07.253Z,17.4
2017-07-06T11:24:07.974Z,19.5
2017-07-06T11:25:08.692Z,19.7
2017-07-06T11:26:09.413Z,20.9
2017-07-06T11:27:10.133Z,20.3
2017-07-06T11:28:10.820Z,19.2
2017-07-06T11:29:11.539Z,19.1
2017-07-06T11:30:12.230Z,18.1
2017-07-06T11:31:12.947Z,19.6
2017-07-06T11:32:13.663Z,19.2
2017-07-06T11:33:14.378Z,15.6
2017-07-06T11:34:15.064Z,16.8
2017-07-06T11:35:15.785Z,16.9
2017-07-06T11:36:16.468Z,16.5
2017-07-06T11:37:17.158Z,16.4
2017-07-06T11:38:17.873Z,17.3
2017-07-06T11:39:18.594Z,17.7
2017-07-06T11:40:19.314Z,16.5
2017-07-06T11:41:20.032Z,15.3
2017-07-06T11:42:20.746Z,16.8
2017-07-06T11:43:21.468Z,18.4
2017-07-06T11:44:22.186Z,18.2
2017-07-06T11:45:22.908Z,18.9
2017-07-06T11:46:23.866Z,17.4
2017-07-06T11:47:24.588Z,16.9
2017-07-06T11:48:25.313Z,18.1
2017-07-06T11:49:26.035Z,20.3
2017-07-06T11:50:26.757Z,20.1
2017-07-06T11:51:27.441Z,21.3
2017-07-06T11:52:28.162Z,21.5
2017-07-06T11:53:28.881Z,19.0
2017-07-06T11:54:29.568Z,17.9
2017-07-06T11:55:30.289Z,16.2
2017-07-06T11:56:31.245Z,16.5
2017-07-06T11:57:31.962Z,15.1
2017-07-06T11:58:32.684Z,16.3
2017-07-06T11:59:33.397Z,15.4
2017-07-06T12:00:34.154Z,14.4
2017-07-06T12:01:34.799Z,15.7
2017-07-06T12:02:35.515Z,16.8
2017-07-06T12:03:36.230Z,16.0
2017-07-06T12:04:36.953Z,16.7
2017-07-06T12:05:37.675Z,14.4
2017-07-06T12:06:38.357Z,13.5
2017-07-06T12:07:39.045Z,13.4
2017-07-06T12:08:39.763Z,12.8
2017-07-06T12:09:40.450Z,15.7
2017-07-06T12:10:41.138Z,15.6
2017-07-06T12:11:41.822Z,15.9
2017-07-06T12:12:42.540Z,14.3
2017-07-06T12:13:43.256Z,15.7
2017-07-06T12:14:43.967Z,14.2
2017-07-06T12:15:44.653Z,13.3
2017-07-06T12:16:45.366Z,14.9
2017-07-06T12:17:46.087Z,14.6
2017-07-06T12:18:46.771Z,11.1
2017-07-06T12:19:47.490Z,11.0
2017-07-06T12:20:48.176Z,11.9
2017-07-06T12:21:48.859Z,16.1
2017-07-06T12:22:49.578Z,15.9
2017-07-06T12:23:50.291Z,13.3
2017-07-06T12:24:51.245Z,13.1
2017-07-06T12:25:51.960Z,12.1
2017-07-06T12:26:52.671Z,11.2
2017-07-06T12:27:53.393Z,10.7
2017-07-06T12:28:54.107Z,10.5
2017-07-06T12:29:54.826Z,12.6
2017-07-06T12:30:55.543Z,10.4
2017-07-06T12:31:56.262Z,9.9
2017-07-06T12:32:56.949Z,10.2
2017-07-06T12:33:57.664Z,9.6
2017-07-06T12:34:58.380Z,7.8
2017-07-06T12:35:59.093Z,10.5
2017-07-06T12:36:59.784Z,10.2
2017-07-06T12:38:00.497Z,10.1
2017-07-06T12:39:01.216Z,9.3
2017-07-06T12:40:01.938Z,8.9
2017-07-06T12:41:02.654Z,9.9
2017-07-06T12:42:03.376Z,9.0
2017-07-06T12:43:04.093Z,7.8
2017-07-06T12:44:04.811Z,7.1
2017-07-06T12:45:05.529Z,6.2
2017-07-06T12:46:06.250Z,6.6
2017-07-06T12:47:06.972Z,7.0
2017-07-06T12:48:07.690Z,7.2
2017-07-06T12:49:08.413Z,7.2
2017-07-06T12:50:09.128Z,7.4
2017-07-06T12:51:09.844Z,7.2
2017-07-06T12:52:10.569Z,7.0
2017-07-06T12:53:11.254Z,5.1
2017-07-06T12:54:11.972Z,5.1
2017-07-06T12:55:12.657Z,4.8
2017-07-06T12:56:13.370Z,5.1
2017-07-06T12:57:14.091Z,4.8
2017-07-06T12:58:14.777Z,3.6
2017-07-06T12:59:15.498Z,5.2
2017-07-06T13:00:16.217Z,3.4
2017-07-06T13:01:16.941Z,3.5
2017-07-06T13:02:17.663Z,5.5
2017-07-06T13:03:18.381Z,3.7
2017-07-06T13:04:19.099Z,5.7
2017-07-06T13:05:19.819Z,9.5
2017-07-06T13:06:20.540Z,11.4
2017-07-06T13:07:21.260Z,11.0
2017-07-06T13:08:21.979Z,8.7
2017-07-06T13:09:22.700Z,8.9
2017-07-06T13:10:23.423Z,10.5
2017-07-06T13:11:24.145Z,10.8
2017-07-06T13:12:24.833Z,10.3
2017-07-06T13:13:25.555Z,8.8
2017-07-06T13:14:26.276Z,6.6
2017-07-06T13:15:26.987Z,7.5
2017-07-06T13:16:27.707Z,4.2
2017-07-06T13:17:28.431Z,3.4
2017-07-06T13:18:29.147Z,4.4
2017-07-06T13:19:29.867Z,5.0
2017-07-06T13:20:30.589Z,4.3
2017-07-06T13:21:31.308Z,4.6
2017-07-06T13:22:32.265Z,4.3
2017-07-06T13:23:32.981Z,3.9
2017-07-06T13:24:33.699Z,3.2
2017-07-06T13:25:34.419Z,3.2
2017-07-06T13:26:35.141Z,3.5
2017-07-06T13:27:35.827Z,1.8
2017-07-06T13:28:36.519Z,2.3
2017-07-06T13:29:37.237Z,2.3
2017-07-06T13:30:37.962Z,1.0
2017-07-06T13:31:38.650Z,2.7
2017-07-06T13:32:39.338Z,2.3
2017-07-06T13:33:40.063Z,3.1
2017-07-06T13:34:40.777Z,3.0
2017-07-06T13:35:41.497Z,4.0
2017-07-06T13:36:42.221Z,3.0
2017-07-06T13:37:42.942Z,3.9
2017-07-06T13:38:43.667Z,3.6
2017-07-06T13:39:44.355Z,4.8
2017-07-06T13:40:45.075Z,5.2
2017-07-06T13:41:45.798Z,4.6
2017-07-06T13:42:46.504Z,4.7
2017-07-06T13:43:47.239Z,7.2
2017-07-06T13:44:47.961Z,4.6
2017-07-06T13:45:48.683Z,4.6
2017-07-06T13:46:49.400Z,6.0
2017-07-06T13:47:50.123Z,4.7
2017-07-06T13:48:50.840Z,3.9
2017-07-06T13:49:51.533Z,3.7
2017-07-06T13:50:52.254Z,5.1
2017-07-06T13:51:52.942Z,7.0
2017-07-06T13:52:53.659Z,5.1
2017-07-06T13:53:54.384Z,6.8
2017-07-06T13:54:55.102Z,9.4
2017-07-06T13:55:55.839Z,8.7
2017-07-06T13:56:56.536Z,8.5
2017-07-06T13:57:57.259Z,8.3
2017-07-06T13:58:57.979Z,7.3
2017-07-06T13:59:58.708Z,9.3
2017-07-06T14:00:59.396Z,10.1
2017-07-06T14:02:00.129Z,12.2
2017-07-06T14:03:00.840Z,13.5
2017-07-06T14:04:01.571Z,16.5
2017-07-06T14:05:02.237Z,15.1
2017-07-06T14:06:02.923Z,14.4
2017-07-06T14:07:03.611Z,16.4
2017-07-06T14:08:04.330Z,17.6
2017-07-06T14:09:05.055Z,17.2
2017-07-06T14:10:05.738Z,16.9
2017-07-06T14:11:06.457Z,18.9
2017-07-06T14:12:07.145Z,17.3
2017-07-06T14:13:07.834Z,17.0
2017-07-06T14:14:08.552Z,17.6
2017-07-06T14:15:09.265Z,16.8
2017-07-06T14:16:09.982Z,19.1
2017-07-06T14:17:10.695Z,22.9
2017-07-06T14:18:11.409Z,21.9
2017-07-06T14:19:12.091Z,19.5
2017-07-06T14:20:12.813Z,21.1
2017-07-06T14:21:13.525Z,19.0
2017-07-06T14:22:14.237Z,19.8
2017-07-06T14:23:14.945Z,20.2
2017-07-06T14:24:15.664Z,20.9
2017-07-06T14:25:16.344Z,20.6
2017-07-06T14:26:17.063Z,21.1
2017-07-06T14:27:17.747Z,22.9
2017-07-06T14:28:18.457Z,26.8
2017-07-06T14:29:19.170Z,24.0
2017-07-06T14:30:19.886Z,22.5
2017-07-06T14:31:20.599Z,22.7
2017-07-06T14:32:21.311Z,23.5
2017-07-06T14:33:22.026Z,21.9
2017-07-06T14:34:22.740Z,25.1
2017-07-06T14:35:23.449Z,25.8
2017-07-06T14:36:24.165Z,23.9
2017-07-06T14:37:24.845Z,25.1
2017-07-06T14:38:25.554Z,27.0
2017-07-06T14:39:26.233Z,23.7
2017-07-06T14:40:26.950Z,25.7
2017-07-06T14:41:27.661Z,25.8
2017-07-06T14:42:28.374Z,26.9
2017-07-06T14:43:29.089Z,27.2
2017-07-06T14:44:29.797Z,25.7
2017-07-06T14:45:30.508Z,26.1
2017-07-06T14:46:31.217Z,30.3
2017-07-06T14:47:31.934Z,30.3
2017-07-06T14:48:32.647Z,25.7
2017-07-06T14:49:33.357Z,27.3
2017-07-06T14:50:34.064Z,28.3
2017-07-06T14:51:34.778Z,26.0
2017-07-06T14:52:35.497Z,26.7
2017-07-06T14:53:36.199Z,27.0
2017-07-06T14:54:36.909Z,26.5
2017-07-06T14:55:37.622Z,27.5
2017-07-06T14:56:38.330Z,27.4
2017-07-06T14:57:39.009Z,27.2
2017-07-06T14:58:39.723Z,26.9
2017-07-06T14:59:40.434Z,27.3
2017-07-06T15:00:41.143Z,30.1
2017-07-06T15:01:41.851Z,29.7
2017-07-06T15:02:42.560Z,28.2
2017-07-06T15:03:43.273Z,27.3
2017-07-06T15:04:43.985Z,30.3
2017-07-06T15:05:44.692Z,31.7
2017-07-06T15:06:45.401Z,30.8
2017-07-06T15:07:46.075Z,30.3
2017-07-06T15:08:46.766Z,29.9
2017-07-06T15:09:47.501Z,28.5
2017-07-06T15:10:48.205Z,29.0
2017-07-06T15:11:48.885Z,31.3
2017-07-06T15:12:49.588Z,32.6
2017-07-06T15:13:50.302Z,30.7
2017-07-06T15:14:51.016Z,32.1
2017-07-06T15:15:51.689Z,31.3
2017-07-06T15:16:52.393Z,31.8
2017-07-06T15:17:53.096Z,33.4
2017-07-06T15:18:53.809Z,35.4
2017-07-06T15:19:54.515Z,30.5
2017-07-06T15:20:55.225Z,32.8
2017-07-06T15:21:55.901Z,30.5
2017-07-06T15:22:56.607Z,30.1
2017-07-06T15:23:57.314Z,31.7
2017-07-06T15:24:58.024Z,32.1
2017-07-06T15:25:58.730Z,31.4
2017-07-06T15:26:59.438Z,34.6
2017-07-06T15:28:00.144Z,30.5
2017-07-06T15:29:00.855Z,31.2
2017-07-06T15:30:01.772Z,32.9
2017-07-06T15:31:02.483Z,33.2
2017-07-06T15:32:03.184Z,34.5
2017-07-06T15:33:03.893Z,34.9
2017-07-06T15:34:04.566Z,34.2
2017-07-06T15:35:05.275Z,33.6
2017-07-06T15:36:05.950Z,30.1
2017-07-06T15:37:06.659Z,31.4
2017-07-06T15:38:07.369Z,28.0
2017-07-06T15:39:08.047Z,26.6
2017-07-06T15:40:08.758Z,25.5
2017-07-06T15:41:09.460Z,25.8
2017-07-06T15:42:10.167Z,28.7
2017-07-06T15:43:10.877Z,24.3
2017-07-06T15:44:11.589Z,24.0
2017-07-06T15:45:12.515Z,23.3
2017-07-06T15:46:13.222Z,24.4
2017-07-06T15:47:13.936Z,23.1
2017-07-06T15:48:14.612Z,22.6
2017-07-06T15:49:15.320Z,23.3
2017-07-06T15:50:16.024Z,25.0
2017-07-06T15:51:16.732Z,22.0
2017-07-06T15:52:17.438Z,21.5
2017-07-06T15:53:18.146Z,20.4
2017-07-06T15:54:18.822Z,18.2
2017-07-06T15:55:19.528Z,16.7
2017-07-06T15:56:20.236Z,17.3
2017-07-06T15:57:20.943Z,15.3
2017-07-06T15:58:21.648Z,14.7
2017-07-06T15:59:22.328Z,12.8
2017-07-06T16:00:23.007Z,12.0
2017-07-06T16:01:23.718Z,11.8
2017-07-06T16:02:24.425Z,11.0
2017-07-06T16:03:25.135Z,9.3
2017-07-06T16:04:25.841Z,10.2
2017-07-06T16:05:26.520Z,11.2
2017-07-06T16:06:27.226Z,9.6
2017-07-06T16:07:27.930Z,10.1
2017-07-06T16:08:28.614Z,9.5
2017-07-06T16:09:29.327Z,8.9
2017-07-06T16:10:30.029Z,9.2
2017-07-06T16:11:30.708Z,12.0
2017-07-06T16:12:31.416Z,15.6
2017-07-06T16:13:32.129Z,17.8
2017-07-06T16:14:32.842Z,21.5
2017-07-06T16:15:33.551Z,18.0
2017-07-06T16:16:34.260Z,16.9
2017-07-06T16:17:34.958Z,16.8
2017-07-06T16:18:35.687Z,18.5
2017-07-06T16:19:36.403Z,19.2
2017-07-06T16:20:37.081Z,18.2
2017-07-06T16:21:37.794Z,17.8
2017-07-06T16:22:38.491Z,18.9
2017-07-06T16:23:39.190Z,18.9
2017-07-06T16:24:39.908Z,19.6
2017-07-06T16:25:40.623Z,20.6
2017-07-06T16:26:41.330Z,19.9
2017-07-06T16:27:42.038Z,20.8
2017-07-06T16:28:42.758Z,21.7
2017-07-06T16:29:43.477Z,20.5
2017-07-06T16:30:44.159Z,20.3
2017-07-06T16:31:44.839Z,23.5
2017-07-06T16:32:45.525Z,23.1
2017-07-06T16:33:46.230Z,21.4
2017-07-06T16:34:46.939Z,21.5
2017-07-06T16:35:47.652Z,21.9
2017-07-06T16:36:48.330Z,22.5
2017-07-06T16:37:49.069Z,24.8
2017-07-06T16:38:49.780Z,27.5
2017-07-06T16:39:50.492Z,24.7
2017-07-06T16:40:51.172Z,23.9
2017-07-06T16:41:51.891Z,24.8
2017-07-06T16:42:52.591Z,26.0
2017-07-06T16:43:53.306Z,26.9
2017-07-06T16:44:54.015Z,26.1
2017-07-06T16:45:54.719Z,28.1
2017-07-06T16:46:55.430Z,28.0
2017-07-06T16:47:56.143Z,26.8
2017-07-06T16:48:56.853Z,28.2
2017-07-06T16:49:57.566Z,29.4
2017-07-06T16:50:58.270Z,30.7
2017-07-06T16:51:58.984Z,29.7
2017-07-06T16:52:59.695Z,30.0
2017-07-06T16:54:00.397Z,27.7
2017-07-06T16:55:01.075Z,28.8
2017-07-06T16:56:01.781Z,30.1
2017-07-06T16:57:02.494Z,32.7
2017-07-06T16:58:03.200Z,31.8
2017-07-06T16:59:03.909Z,32.1
2017-07-06T17:00:04.615Z,34.0
2017-07-06T17:01:05.324Z,33.1
2017-07-06T17:02:06.031Z,31.5
2017-07-06T17:03:06.736Z,33.0
2017-07-06T17:04:07.448Z,33.5
2017-07-06T17:05:08.155Z,33.0
2017-07-06T17:06:08.868Z,33.1
2017-07-06T17:07:09.576Z,32.5
2017-07-06T17:08:10.250Z,33.2
2017-07-06T17:09:10.961Z,34.9
2017-07-06T17:10:11.661Z,36.5
2017-07-06T17:11:12.340Z,37.8
2017-07-06T17:12:13.074Z,37.5
2017-07-06T17:13:13.753Z,37.2
2017-07-06T17:14:14.511Z,39.3
2017-07-06T17:15:15.158Z,40.6
2017-07-06T17:16:15.897Z,39.1
2017-07-06T17:17:16.836Z,38.6
2017-07-06T17:18:17.537Z,38.9
2017-07-06T17:19:18.244Z,40.0
2017-07-06T17:20:18.931Z,39.7
2017-07-06T17:21:19.624Z,38.9
2017-07-06T17:22:20.333Z,37.3
2017-07-06T17:23:21.036Z,36.1
2017-07-06T17:24:21.743Z,36.7
2017-07-06T17:25:22.446Z,36.9
2017-07-06T17:26:23.153Z,38.5
2017-07-06T17:27:23.828Z,39.6
2017-07-06T17:28:24.535Z,37.4
2017-07-06T17:29:25.240Z,40.3
2017-07-06T17:30:25.938Z,40.9
2017-07-06T17:31:26.667Z,39.2
2017-07-06T17:32:27.380Z,40.1
2017-07-06T17:33:28.078Z,37.2
2017-07-06T17:34:28.818Z,36.2
2017-07-06T17:35:29.491Z,35.8
2017-07-06T17:36:30.265Z,36.5
2017-07-06T17:37:30.908Z,38.2
2017-07-06T17:38:31.647Z,40.5
2017-07-06T17:39:32.351Z,41.2
2017-07-06T17:40:33.056Z,40.2
2017-07-06T17:41:33.757Z,37.2
2017-07-06T17:42:34.467Z,37.4
2017-07-06T17:43:35.138Z,36.2
2017-07-06T17:44:35.840Z,36.5
2017-07-06T17:45:36.545Z,37.1
2017-07-06T17:46:37.256Z,37.4
2017-07-06T17:47:37.964Z,37.3
2017-07-06T17:48:38.634Z,36.1
2017-07-06T17:49:39.344Z,35.7
2017-07-06T17:50:40.050Z,36.3
2017-07-06T17:51:40.755Z,34.0
2017-07-06T17:52:41.455Z,34.7
2017-07-06T17:53:42.163Z,34.8
2017-07-06T17:54:42.873Z,35.5
2017-07-06T17:55:43.589Z,34.8
2017-07-06T17:56:44.260Z,35.0
2017-07-06T17:57:44.971Z,35.8
2017-07-06T17:58:45.637Z,35.1
2017-07-06T17:59:46.342Z,35.7
2017-07-06T18:00:47.048Z,37.3
2017-07-06T18:01:47.757Z,36.1
2017-07-06T18:02:48.699Z,39.3
2017-07-06T18:03:49.400Z,39.4
2017-07-06T18:04:50.109Z,38.2
2017-07-06T18:05:50.817Z,36.1
2017-07-06T18:06:51.521Z,38.3
2017-07-06T18:07:52.226Z,38.8
2017-07-06T18:08:52.934Z,39.5
2017-07-06T18:09:53.642Z,42.6
2017-07-06T18:10:54.365Z,42.4
2017-07-06T18:11:55.042Z,39.6
2017-07-06T18:12:55.715Z,39.9
2017-07-06T18:13:56.434Z,40.9
2017-07-06T18:14:57.156Z,41.6
2017-07-06T18:15:57.826Z,41.8
2017-07-06T18:16:58.531Z,42.1
2017-07-06T18:17:59.239Z,43.1
2017-07-06T18:18:59.940Z,44.0
2017-07-06T18:20:00.647Z,43.2
2017-07-06T18:21:01.363Z,44.0
2017-07-06T18:22:02.069Z,42.8
2017-07-06T18:23:02.768Z,42.9
2017-07-06T18:24:03.478Z,43.2
2017-07-06T18:25:04.181Z,43.9
2017-07-06T18:26:04.895Z,42.1
2017-07-06T18:27:05.595Z,43.7
2017-07-06T18:28:06.265Z,43.9
2017-07-06T18:29:06.973Z,45.5
2017-07-06T18:30:07.673Z,45.4
2017-07-06T18:31:08.379Z,45.4
2017-07-06T18:32:09.079Z,45.1
2017-07-06T18:33:09.799Z,45.5
2017-07-06T18:34:10.488Z,44.7
2017-07-06T18:35:11.192Z,44.8
2017-07-06T18:36:11.897Z,47.4
2017-07-06T18:37:12.601Z,46.8
2017-07-06T18:38:13.306Z,46.7
2017-07-06T18:39:14.010Z,46.9
2017-07-06T18:40:14.712Z,46.7
2017-07-06T18:41:15.408Z,48.8
2017-07-06T18:42:16.116Z,48.5
2017-07-06T18:43:16.813Z,48.1
2017-07-06T18:44:17.519Z,48.4
2017-07-06T18:45:18.188Z,46.7
2017-07-06T18:46:18.891Z,45.7
2017-07-06T18:47:19.594Z,46.6
2017-07-06T18:48:20.291Z,46.9
2017-07-06T18:49:20.993Z,47.9
2017-07-06T18:50:21.698Z,47.9
2017-07-06T18:51:22.399Z,48.3
2017-07-06T18:52:23.100Z,49.5
2017-07-06T18:53:23.798Z,50.0
2017-07-06T18:54:24.499Z,49.6
2017-07-06T18:55:25.196Z,50.1
2017-07-06T18:56:25.897Z,49.7
2017-07-06T18:57:26.599Z,49.0
2017-07-06T18:58:27.302Z,51.2
2017-07-06T18:59:28.021Z,51.4
2017-07-06T19:00:28.696Z,52.1
2017-07-06T19:01:29.393Z,52.5
2017-07-06T19:02:30.104Z,52.4
2017-07-06T19:03:31.044Z,52.5
2017-07-06T19:04:31.709Z,53.8
2017-07-06T19:05:32.416Z,53.7
2017-07-06T19:06:33.079Z,53.9
2017-07-06T19:07:33.812Z,54.4
